Time;durP1;ratioP1;P1;durP2;ratioP2;P2;SDS_P1;SDS_P2;PMS_P1;PMS_P2;Temp;Humidity;BMP_temperature;BMP_pressure;BME280_temperature;BME280_humidity;BME280_pressure;Samples;Min_cycle;Max_cycle;Signal;HPM_P1;HPM_P2
2020/12/12 00:00:04;;;;;;;12.65;6.47;;;;;;;0.12;69.82;100701.13;1689446;83;21194;-48
2020/12/12 00:02:33;;;;;;;9.30;6.30;;;;;;;0.08;69.91;100703.86;1699928;83;21230;-49
2020/12/12 00:05:01;;;;;;;13.07;6.80;;;;;;;0.03;70.12;100702.25;1701081;83;21187;-48
2020/12/12 00:07:28;;;;;;;11.77;6.40;;;;;;;-0.02;70.46;100700.96;1689725;84;21261;-48
2020/12/12 00:09:56;;;;;;;13.40;7.43;;;;;;;0.01;70.49;100699.77;1697615;83;21294;-48
2020/12/12 00:12:24;;;;;;;12.20;7.00;;;;;;;0.04;70.51;100697.22;1689481;84;21065;-49
2020/12/12 00:14:52;;;;;;;13.17;7.60;;;;;;;0.05;70.40;100688.17;1689535;84;21072;-48
2020/12/12 00:17:19;;;;;;;13.23;7.07;;;;;;;0.07;70.36;100699.02;1663819;84;21194;-48
2020/12/12 00:19:47;;;;;;;13.67;7.77;;;;;;;0.15;70.18;100697.58;1690542;84;21209;-48
2020/12/12 00:22:15;;;;;;;12.27;7.80;;;;;;;0.22;69.88;100696.31;1689745;83;21048;-48
2020/12/12 00:24:42;;;;;;;17.87;8.07;;;;;;;0.27;69.75;100691.22;1689435;84;21626;-47
2020/12/12 00:27:09;;;;;;;15.57;8.60;;;;;;;0.32;69.65;100687.46;1689410;83;21259;-48
2020/12/12 00:29:37;;;;;;;13.53;7.63;;;;;;;0.35;69.48;100692.42;1689812;83;21674;-48
2020/12/12 00:32:04;;;;;;;14.25;8.75;;;;;;;0.37;69.37;100684.22;1689719;84;21356;-48
2020/12/12 00:34:33;;;;;;;13.57;7.80;;;;;;;0.38;69.31;100680.52;1689746;84;21992;-47
2020/12/12 00:37:00;;;;;;;12.50;7.35;;;;;;;0.41;69.14;100679.64;1690926;83;21148;-48
2020/12/12 00:39:28;;;;;;;12.57;7.23;;;;;;;0.43;68.99;100680.27;1642904;84;21115;-47
2020/12/12 00:41:55;;;;;;;14.35;8.68;;;;;;;0.45;68.83;100680.89;1688839;83;21529;-47
2020/12/12 00:44:23;;;;;;;14.77;8.50;;;;;;;0.42;68.81;100679.95;1678017;84;23587;-47
2020/12/12 00:46:52;;;;;;;11.87;7.63;;;;;;;0.37;69.04;100672.17;1677877;84;21045;-47
2020/12/12 00:49:20;;;;;;;13.40;7.57;;;;;;;0.38;69.04;100680.00;1677815;85;20922;-47
2020/12/12 00:51:47;;;;;;;12.87;8.03;;;;;;;0.36;69.08;100669.19;1677917;84;21497;-48
2020/12/12 00:54:16;;;;;;;11.00;7.93;;;;;;;0.32;69.18;100667.91;1677893;84;20954;-48
2020/12/12 00:56:44;;;;;;;13.83;7.73;;;;;;;0.28;69.34;100671.97;1677921;84;21559;-47
2020/12/12 00:59:12;;;;;;;13.60;7.50;;;;;;;0.27;69.37;100675.67;1677709;85;21796;-47
2020/12/12 01:01:40;;;;;;;12.63;8.13;;;;;;;0.27;69.37;100666.30;1677849;85;21084;-47
2020/12/12 01:04:08;;;;;;;11.00;6.30;;;;;;;0.28;69.34;100671.45;1677862;85;21521;-47
2020/12/12 01:06:36;;;;;;;15.80;8.80;;;;;;;0.31;69.36;100673.77;1658444;85;21136;-47
2020/12/12 01:09:03;;;;;;;13.23;7.70;;;;;;;0.31;69.29;100681.80;1677967;85;21402;-47
2020/12/12 01:11:31;;;;;;;11.83;7.30;;;;;;;0.29;69.30;100662.91;1677913;85;21920;-47
2020/12/12 01:13:58;;;;;;;11.40;7.43;;;;;;;0.30;69.19;100665.39;1677756;84;21504;-47
2020/12/12 01:16:26;;;;;;;9.93;5.37;;;;;;;0.24;69.20;100658.95;1677820;85;21509;-47
2020/12/12 01:18:54;;;;;;;12.40;7.00;;;;;;;0.20;69.48;100662.20;1677856;85;21508;-47
2020/12/12 01:21:21;;;;;;;11.48;7.80;;;;;;;0.20;69.42;100663.05;1677868;85;21609;-47
2020/12/12 01:23:49;;;;;;;14.87;8.23;;;;;;;0.20;69.57;100661.72;1677864;85;20962;-47
2020/12/12 01:26:17;;;;;;;12.67;7.93;;;;;;;0.25;69.53;100660.64;1677881;85;20946;-47
2020/12/12 01:28:44;;;;;;;11.23;7.43;;;;;;;0.24;69.45;100662.97;1677791;85;21144;-46
2020/12/12 01:31:13;;;;;;;14.30;7.63;;;;;;;0.22;69.68;100670.88;1658526;84;21188;-46
2020/12/12 01:33:40;;;;;;;12.23;7.70;;;;;;;0.27;69.56;100660.44;1677894;85;21853;-46
2020/12/12 01:36:07;;;;;;;15.47;8.00;;;;;;;0.33;69.31;100666.88;1677789;85;21092;-47
2020/12/12 01:38:35;;;;;;;11.60;6.70;;;;;;;0.37;69.18;100664.97;1677836;83;20989;-47
2020/12/12 01:41:03;;;;;;;11.60;7.20;;;;;;;0.40;68.98;100667.24;1677814;84;21617;-48
2020/12/12 01:43:31;;;;;;;11.77;7.43;;;;;;;0.33;69.02;100667.70;1682705;83;20977;-47
2020/12/12 01:45:59;;;;;;;11.83;7.57;;;;;;;0.30;69.07;100665.39;1685476;85;21298;-47
2020/12/12 01:48:26;;;;;;;12.50;7.90;;;;;;;0.32;69.03;100662.55;1685449;83;21791;-47
2020/12/12 01:50:54;;;;;;;11.70;7.23;;;;;;;0.33;68.90;100665.02;1685488;83;21025;-47
2020/12/12 01:53:25;;;;;;;13.97;6.70;;;;;;;0.32;68.76;100655.86;1658383;85;20949;-47
2020/12/12 01:55:51;;;;;;;13.73;7.83;;;;;;;0.30;68.67;100660.04;1685340;84;21183;-48
2020/12/12 01:58:18;;;;;;;13.20;8.60;;;;;;;0.28;68.87;100662.09;1685579;84;21512;-47
2020/12/12 02:00:47;;;;;;;12.30;6.97;;;;;;;0.24;68.74;100656.79;1685346;83;21575;-47
2020/12/12 02:03:15;;;;;;;10.63;7.63;;;;;;;0.23;68.79;100655.97;1685489;83;20961;-47
2020/12/12 02:05:45;;;;;;;16.57;8.47;;;;;;;0.21;68.95;100659.36;1685437;85;21257;-47
2020/12/12 02:08:16;;;;;;;10.80;6.27;;;;;;;0.21;69.09;100648.65;1636207;85;21077;-47
2020/12/12 02:10:47;;;;;;;12.47;7.37;;;;;;;0.24;68.99;100656.28;1685532;85;21391;-46
2020/12/12 02:13:17;;;;;;;12.57;7.40;;;;;;;0.28;68.88;100658.59;1685386;85;21036;-47
2020/12/12 02:15:45;;;;;;;11.55;6.62;;;;;;;0.26;68.73;100654.77;1658174;85;21181;-48
2020/12/12 02:18:23;;;;;;;12.07;7.27;;;;;;;0.30;68.48;100655.20;1685595;85;21200;-46
2020/12/12 02:20:57;;;;;;;9.90;6.47;;;;;;;0.31;68.28;100660.38;1685341;84;21084;-46
2020/12/12 02:23:25;;;;;;;11.07;7.20;;;;;;;0.30;68.01;100654.69;1685447;85;22328;-46
2020/12/12 02:25:55;;;;;;;13.30;7.97;;;;;;;0.29;68.11;100660.23;1685404;83;21009;-46
2020/12/12 02:28:30;;;;;;;12.93;7.47;;;;;;;0.32;68.09;100658.02;1685436;85;21164;-47
2020/12/12 02:30:55;;;;;;;12.47;8.03;;;;;;;0.35;67.80;100671.52;1685246;85;21024;-47
2020/12/12 02:33:23;;;;;;;10.93;6.33;;;;;;;0.33;67.78;100654.83;1685378;83;21139;-46
2020/12/12 02:35:51;;;;;;;11.07;7.73;;;;;;;0.30;67.52;100660.55;1685378;85;21352;-48
2020/12/12 02:38:19;;;;;;;12.93;7.17;;;;;;;0.23;67.62;100665.84;1685550;83;21107;-46
2020/12/12 02:40:47;;;;;;;8.75;5.62;;;;;;;0.11;67.68;100655.33;1685219;85;21076;-47
2020/12/12 02:43:14;;;;;;;10.60;5.27;;;;;;;0.04;67.75;100647.21;1682448;83;21555;-47
2020/12/12 02:45:45;;;;;;;15.17;7.37;;;;;;;-0.01;68.01;100646.44;1677706;84;21144;-47
2020/12/12 02:48:14;;;;;;;13.07;7.73;;;;;;;-0.05;67.95;100645.18;1677983;85;22229;-46
2020/12/12 02:50:44;;;;;;;12.17;6.97;;;;;;;-0.07;67.95;100637.83;1677755;85;21623;-46
2020/12/12 02:53:12;;;;;;;11.73;7.73;;;;;;;-0.06;67.97;100640.00;1677815;84;21175;-47
2020/12/12 02:55:39;;;;;;;10.93;6.07;;;;;;;-0.05;67.97;100630.47;1677879;85;20942;-46
2020/12/12 02:58:07;;;;;;;11.43;6.53;;;;;;;-0.06;67.78;100630.64;1677815;83;21220;-46
2020/12/12 03:00:35;;;;;;;11.30;7.30;;;;;;;-0.10;67.88;100647.59;1677784;85;21517;-46
2020/12/12 03:03:03;;;;;;;13.17;6.97;;;;;;;-0.15;68.15;100633.95;1677686;84;21624;-46
2020/12/12 03:05:30;;;;;;;11.30;7.33;;;;;;;-0.19;68.24;100636.67;1677854;84;20907;-47
2020/12/12 03:07:57;;;;;;;9.27;5.90;;;;;;;-0.23;68.25;100637.23;1677718;85;20970;-48
2020/12/12 03:10:25;;;;;;;12.50;6.87;;;;;;;-0.22;68.40;100635.70;1677867;85;21160;-47
2020/12/12 03:12:53;;;;;;;13.97;6.80;;;;;;;-0.21;68.21;100645.89;1677742;84;21519;-47
2020/12/12 03:15:21;;;;;;;11.47;5.37;;;;;;;-0.26;68.06;100626.39;1677907;84;21069;-46
2020/12/12 03:17:48;;;;;;;11.80;6.80;;;;;;;-0.30;67.97;100639.33;1677703;85;21532;-46
2020/12/12 03:20:17;;;;;;;9.90;6.03;;;;;;;-0.38;68.15;100639.42;1677800;85;21049;-46
2020/12/12 03:22:45;;;;;;;12.30;7.53;;;;;;;-0.39;68.17;100624.91;1677887;85;21160;-47
2020/12/12 03:25:13;;;;;;;14.03;6.43;;;;;;;-0.37;68.16;100631.72;1677732;84;21239;-48
2020/12/12 03:27:40;;;;;;;13.40;7.27;;;;;;;-0.34;68.04;100640.71;1677735;85;20966;-47
2020/12/12 03:30:10;;;;;;;11.00;6.43;;;;;;;-0.33;68.06;100643.70;1677871;85;21358;-47
2020/12/12 03:32:37;;;;;;;9.90;5.43;;;;;;;-0.32;68.01;100639.18;1677963;85;21512;-47
2020/12/12 03:35:05;;;;;;;11.57;7.23;;;;;;;-0.34;67.90;100643.90;1677759;85;21148;-46
2020/12/12 03:37:33;;;;;;;13.20;6.47;;;;;;;-0.31;67.88;100634.14;1677936;84;21951;-46
2020/12/12 03:40:00;;;;;;;10.80;6.60;;;;;;;-0.26;67.79;100641.09;1677640;84;21532;-46
2020/12/12 03:42:28;;;;;;;12.50;7.57;;;;;;;-0.26;67.64;100638.42;1677744;85;21184;-46
2020/12/12 03:44:55;;;;;;;9.40;6.30;;;;;;;-0.26;67.55;100643.77;1677640;84;21164;-46
2020/12/12 03:47:23;;;;;;;12.33;6.87;;;;;;;-0.27;67.48;100650.14;1677775;85;21152;-46
2020/12/12 03:49:50;;;;;;;13.17;7.33;;;;;;;-0.26;67.67;100645.94;1677693;85;21935;-47
2020/12/12 03:52:18;;;;;;;10.50;6.77;;;;;;;-0.24;67.51;100652.45;1677786;85;21128;-47
2020/12/12 03:54:46;;;;;;;10.97;6.60;;;;;;;-0.23;67.53;100642.08;1677439;85;21580;-47
2020/12/12 03:57:14;;;;;;;8.80;5.17;;;;;;;-0.20;67.34;100642.19;1677060;85;21164;-47
2020/12/12 03:59:42;;;;;;;10.87;6.73;;;;;;;-0.23;67.11;100649.27;1677754;85;21631;-47
2020/12/12 04:02:10;;;;;;;13.55;6.78;;;;;;;-0.27;67.23;100646.13;1677628;85;22291;-47
2020/12/12 04:04:38;;;;;;;9.77;6.33;;;;;;;-0.30;67.28;100642.52;1677858;85;21528;-46
2020/12/12 04:07:06;;;;;;;13.10;6.93;;;;;;;-0.30;67.20;100646.02;1677719;85;21021;-46
2020/12/12 04:09:33;;;;;;;9.97;6.47;;;;;;;-0.33;67.36;100654.39;1677724;84;21646;-47
2020/12/12 04:12:01;;;;;;;11.97;7.53;;;;;;;-0.32;67.17;100651.21;1677688;85;21445;-46
2020/12/12 04:14:28;;;;;;;10.53;6.40;;;;;;;-0.24;66.94;100647.62;1677535;85;21041;-47
2020/12/12 04:16:57;;;;;;;12.53;7.37;;;;;;;-0.23;66.75;100639.40;1677646;84;21088;-46
2020/12/12 04:19:25;;;;;;;10.43;7.03;;;;;;;-0.21;66.73;100641.36;1677884;85;21119;-46
2020/12/12 04:21:52;;;;;;;11.07;6.27;;;;;;;-0.20;66.59;100638.18;1677435;85;21926;-46
2020/12/12 04:24:20;;;;;;;16.00;7.37;;;;;;;-0.27;66.73;100636.27;1677850;84;20966;-46
2020/12/12 04:26:47;;;;;;;10.67;6.77;;;;;;;-0.32;66.64;100642.68;1677751;85;22561;-48
2020/12/12 04:29:15;;;;;;;9.07;5.47;;;;;;;-0.36;66.66;100645.40;1677391;85;20961;-47
2020/12/12 04:31:43;;;;;;;13.27;7.37;;;;;;;-0.45;66.86;100638.52;1658194;85;21172;-47
2020/12/12 04:34:12;;;;;;;15.83;7.30;;;;;;;-0.48;67.03;100630.86;1677644;84;21095;-48
2020/12/12 04:36:40;;;;;;;12.70;7.53;;;;;;;-0.47;67.07;100634.36;1678033;84;21089;-47
2020/12/12 04:39:08;;;;;;;13.70;7.10;;;;;;;-0.50;67.19;100641.44;1677643;84;22356;-46
2020/12/12 04:41:36;;;;;;;12.90;7.07;;;;;;;-0.50;67.08;100638.77;1677660;85;21033;-47
2020/12/12 04:44:04;;;;;;;13.23;7.67;;;;;;;-0.58;66.99;100627.13;1658148;85;21045;-47
2020/12/12 04:46:32;;;;;;;11.70;7.10;;;;;;;-0.65;67.09;100626.23;1677981;85;21567;-47
2020/12/12 04:49:01;;;;;;;11.37;7.00;;;;;;;-0.63;67.15;100625.52;1658667;85;21139;-46
2020/12/12 04:51:30;;;;;;;14.37;8.10;;;;;;;-0.57;66.95;100615.94;1677780;85;21285;-47
2020/12/12 04:53:57;;;;;;;11.17;6.70;;;;;;;-0.57;66.82;100629.30;1677494;85;20962;-48
2020/12/12 04:56:26;;;;;;;10.23;6.60;;;;;;;-0.56;66.50;100617.11;1677662;85;21017;-47
2020/12/12 04:58:54;;;;;;;11.43;6.27;;;;;;;-0.56;66.37;100611.77;1677616;85;21056;-47
2020/12/12 05:01:22;;;;;;;12.73;7.70;;;;;;;-0.60;66.36;100614.98;1677647;85;21179;-48
2020/12/12 05:03:50;;;;;;;8.93;6.07;;;;;;;-0.61;66.48;100618.17;1677810;84;21345;-47
2020/12/12 05:06:17;;;;;;;12.67;6.57;;;;;;;-0.58;66.47;100616.95;1658348;85;21120;-46
2020/12/12 05:08:46;;;;;;;9.90;6.50;;;;;;;-0.63;66.38;100614.83;1677829;85;21551;-46
2020/12/12 05:11:14;;;;;;;12.17;6.53;;;;;;;-0.70;66.36;100606.42;1677700;85;21563;-46
2020/12/12 05:13:42;;;;;;;8.00;5.30;;;;;;;-0.72;66.41;100609.26;1658589;85;21163;-46
2020/12/12 05:16:11;;;;;;;13.33;7.33;;;;;;;-0.74;66.61;100611.81;1636954;85;21385;-46
2020/12/12 05:18:38;;;;;;;9.30;6.57;;;;;;;-0.76;66.55;100603.13;1636428;85;20969;-47
2020/12/12 05:21:06;;;;;;;14.03;7.53;;;;;;;-0.74;66.58;100607.29;1658468;85;21010;-46
2020/12/12 05:23:33;;;;;;;14.00;7.73;;;;;;;-0.72;66.44;100603.09;1677073;84;21547;-46
2020/12/12 05:26:01;;;;;;;12.67;7.43;;;;;;;-0.76;66.20;100605.33;1658319;85;21087;-47
2020/12/12 05:28:29;;;;;;;11.70;7.80;;;;;;;-0.80;66.10;100609.38;1677535;84;21280;-47
2020/12/12 05:30:57;;;;;;;10.87;6.97;;;;;;;-0.81;66.23;100610.39;1677988;85;21133;-47
2020/12/12 05:33:27;;;;;;;12.93;7.37;;;;;;;-0.76;66.19;100609.81;1677791;85;21030;-47
2020/12/12 05:35:55;;;;;;;14.70;6.60;;;;;;;-0.68;66.11;100607.88;1677714;84;21164;-48
2020/12/12 05:38:22;;;;;;;12.00;6.40;;;;;;;-0.58;65.71;100611.61;1677500;85;21634;-49
2020/12/12 05:40:53;;;;;;;11.67;7.37;;;;;;;-0.59;65.48;100608.11;1677457;85;21460;-47
2020/12/12 05:43:21;;;;;;;13.00;8.43;;;;;;;-0.62;65.49;100608.47;1677627;84;21627;-47
2020/12/12 05:45:49;;;;;;;11.47;6.73;;;;;;;-0.62;65.69;100605.80;1636508;85;21125;-47
2020/12/12 05:48:17;;;;;;;12.40;7.40;;;;;;;-0.57;65.56;100608.74;1685271;83;21148;-47
2020/12/12 05:50:44;;;;;;;8.87;6.10;;;;;;;-0.54;65.38;100608.89;1684980;85;21623;-47
2020/12/12 05:53:12;;;;;;;11.37;6.47;;;;;;;-0.58;65.35;100608.94;1658211;85;21885;-47
2020/12/12 05:55:40;;;;;;;9.13;5.67;;;;;;;-0.67;65.37;100606.03;1685162;83;21048;-49
2020/12/12 05:58:08;;;;;;;11.20;7.03;;;;;;;-0.73;65.51;100612.12;1689222;82;21195;-48
2020/12/12 06:00:36;;;;;;;9.60;6.97;;;;;;;-0.76;65.65;100605.33;1695684;82;21101;-48
2020/12/12 06:03:08;;;;;;;10.20;6.13;;;;;;;-0.76;65.60;100601.31;1709470;83;21096;-50
2020/12/12 06:05:35;;;;;;;12.83;7.33;;;;;;;-0.74;65.58;100599.79;1713228;83;21234;-48
2020/12/12 06:08:05;;;;;;;10.63;6.27;;;;;;;-0.80;65.50;100600.84;1686183;83;21570;-47
2020/12/12 06:10:34;;;;;;;12.50;7.10;;;;;;;-0.75;65.59;100602.97;1713965;83;21064;-47
2020/12/12 06:13:05;;;;;;;12.35;7.03;;;;;;;-0.73;65.46;100597.43;1713553;83;21088;-48
2020/12/12 06:15:40;;;;;;;11.63;6.85;;;;;;;-0.80;65.65;100602.19;1713325;83;21132;-50
2020/12/12 06:18:32;;;;;;;10.85;8.35;;;;;;;-0.77;65.71;100607.65;1714001;83;21390;-49
2020/12/12 06:21:03;;;;;;;11.53;7.17;;;;;;;-0.74;65.73;100599.28;1709727;83;21100;-47
2020/12/12 06:23:31;;;;;;;14.03;7.97;;;;;;;-0.68;65.56;100602.54;1713930;83;20946;-48
2020/12/12 06:25:59;;;;;;;10.57;6.60;;;;;;;-0.65;65.56;100602.18;1663307;83;21073;-47
2020/12/12 06:28:27;;;;;;;12.87;7.73;;;;;;;-0.66;65.29;100605.02;1713844;83;21060;-49
2020/12/12 06:30:56;;;;;;;8.73;5.77;;;;;;;-0.68;65.52;100602.54;1713642;83;21272;-52
2020/12/12 06:33:24;;;;;;;11.47;7.43;;;;;;;-0.66;65.59;100598.33;1714026;83;21159;-48
2020/12/12 06:35:53;;;;;;;13.87;6.53;;;;;;;-0.68;65.60;100609.73;1713952;83;21049;-46
2020/12/12 06:38:26;;;;;;;11.63;6.67;;;;;;;-0.67;65.56;100616.72;1714079;83;20954;-48
2020/12/12 06:40:58;;;;;;;14.10;7.30;;;;;;;-0.63;65.43;100613.50;1714017;83;21144;-47
2020/12/12 06:43:34;;;;;;;12.45;7.20;;;;;;;-0.63;65.46;100623.36;1713907;83;22316;-48
2020/12/12 06:46:06;;;;;;;11.73;5.97;;;;;;;-0.67;65.40;100615.39;1705894;83;21252;-48
2020/12/12 06:48:36;;;;;;;11.60;5.70;;;;;;;-0.66;65.56;100615.70;1701123;83;21168;-48
2020/12/12 06:51:04;;;;;;;10.83;7.20;;;;;;;-0.71;65.17;100615.43;1690294;84;21129;-48
2020/12/12 06:53:34;;;;;;;8.07;5.73;;;;;;;-0.82;65.61;100610.05;1691743;84;21116;-49
2020/12/12 06:56:14;;;;;;;8.27;4.73;;;;;;;-0.84;65.72;100593.38;1697753;82;21214;-47
2020/12/12 06:58:43;;;;;;;10.37;6.53;;;;;;;-0.84;65.84;100602.73;1706105;84;21625;-48
2020/12/12 07:01:35;;;;;;;11.00;6.70;;;;;;;-0.88;65.88;100601.44;1706122;84;21117;-47
2020/12/12 07:04:04;;;;;;;11.23;5.97;;;;;;;-0.98;66.23;100599.55;1705846;84;21211;-46
2020/12/12 07:06:34;;;;;;;12.10;7.10;;;;;;;-1.05;66.37;100598.12;1678165;84;21258;-45
2020/12/12 07:09:06;;;;;;;11.80;6.27;;;;;;;-0.98;66.40;100604.89;1706151;84;22031;-47
2020/12/12 07:11:33;;;;;;;9.63;6.20;;;;;;;-0.92;66.28;100596.14;1701671;84;21029;-47
2020/12/12 07:14:02;;;;;;;11.33;6.87;;;;;;;-0.97;66.61;100597.19;1706069;83;21529;-46
2020/12/12 07:16:30;;;;;;;13.70;6.33;;;;;;;-0.98;66.66;100595.03;1705982;84;21521;-46
2020/12/12 07:18:58;;;;;;;11.23;6.97;;;;;;;-0.94;66.56;100592.32;1694139;84;21045;-47
2020/12/12 07:21:25;;;;;;;11.60;6.83;;;;;;;-0.92;66.46;100589.45;1677568;84;21225;-49
2020/12/12 07:23:53;;;;;;;11.57;6.40;;;;;;;-0.93;66.61;100593.97;1677535;85;21982;-48
2020/12/12 07:26:21;;;;;;;11.83;6.87;;;;;;;-0.94;66.71;100587.48;1677669;85;20992;-48
2020/12/12 07:28:49;;;;;;;13.23;7.27;;;;;;;-0.97;66.85;100591.85;1677634;85;20950;-48
2020/12/12 07:31:17;;;;;;;12.43;7.10;;;;;;;-1.22;67.12;100550.72;1677422;85;20962;-48
2020/12/12 07:33:48;;;;;;;13.00;7.40;;;;;;;-0.99;67.13;100585.87;1677695;85;21225;-48
2020/12/12 07:36:17;;;;;;;12.50;6.73;;;;;;;-1.02;67.13;100579.05;1700360;84;21012;-50
2020/12/12 07:38:45;;;;;;;11.63;7.40;;;;;;;-1.03;67.46;100588.59;1705487;84;21663;-54
2020/12/12 07:41:14;;;;;;;14.97;8.20;;;;;;;-1.01;67.24;100591.41;1685404;84;21601;-49
2020/12/12 07:43:53;;;;;;;12.00;6.17;;;;;;;-1.06;67.11;100583.95;1705966;84;21001;-48
2020/12/12 07:46:24;;;;;;;12.70;8.23;;;;;;;-1.06;67.33;100590.63;1712987;83;21380;-49
2020/12/12 07:49:00;;;;;;;16.23;8.90;;;;;;;-1.02;67.38;100583.05;1714027;83;21103;-49
2020/12/12 07:51:27;;;;;;;18.07;9.67;;;;;;;-0.90;67.22;100592.80;1713820;83;21072;-50
2020/12/12 07:53:55;;;;;;;14.17;9.23;;;;;;;-0.81;67.16;100585.02;1714016;83;20997;-50
2020/12/12 07:59:01;;;;;;;17.73;8.83;;;;;;;-0.64;66.38;100581.62;1815909;79;23238;-48
2020/12/12 08:01:28;;;;;;;13.80;8.57;;;;;;;-0.71;66.51;100586.03;1788922;80;20985;-48
2020/12/12 08:03:55;;;;;;;18.00;8.63;;;;;;;-0.73;66.57;100580.06;1758535;80;21864;-49
2020/12/12 08:06:27;;;;;;;13.77;8.60;;;;;;;-0.73;66.50;100586.74;1788777;80;20961;-50
2020/12/12 08:08:56;;;;;;;12.87;6.43;;;;;;;-0.73;66.60;100582.22;1788856;80;20937;-49
2020/12/12 08:11:24;;;;;;;15.33;9.20;;;;;;;-0.73;66.70;100592.09;1788784;80;20905;-49
2020/12/12 08:13:52;;;;;;;13.67;8.27;;;;;;;-0.76;66.67;100586.63;1763068;80;20913;-49
2020/12/12 08:16:24;;;;;;;12.47;7.23;;;;;;;-0.74;66.70;100586.42;1757693;81;21389;-51
2020/12/12 08:18:50;;;;;;;14.63;7.53;;;;;;;-0.75;66.75;100590.95;1728490;81;21009;-49
2020/12/12 08:21:19;;;;;;;17.03;6.80;;;;;;;-0.75;66.51;100595.46;1757426;81;20973;-49
2020/12/12 08:23:48;;;;;;;15.80;7.90;;;;;;;-0.75;66.45;100588.78;1757569;81;21500;-49
2020/12/12 08:26:21;;;;;;;12.80;5.97;;;;;;;-0.76;66.35;100591.97;1728325;81;20937;-49
2020/12/12 08:28:49;;;;;;;15.03;7.43;;;;;;;-0.75;66.34;100596.80;1757617;81;21463;-51
2020/12/12 08:31:20;;;;;;;14.97;7.70;;;;;;;-0.80;66.68;100602.70;1757643;81;21012;-49
2020/12/12 08:33:55;;;;;;;10.47;7.63;;;;;;;-0.85;66.89;100595.74;1757520;81;20985;-49
2020/12/12 08:36:28;;;;;;;11.45;5.78;;;;;;;-0.92;67.09;100590.28;1757662;81;20976;-50
2020/12/12 08:39:00;;;;;;;11.73;6.07;;;;;;;-0.95;67.22;100581.83;1757645;81;20949;-49
2020/12/12 08:41:30;;;;;;;15.33;6.10;;;;;;;-1.01;67.34;100583.88;1757442;81;21347;-49
2020/12/12 08:43:59;;;;;;;13.93;6.20;;;;;;;-1.00;67.50;100585.56;1757507;81;21574;-50
2020/12/12 08:46:27;;;;;;;12.93;6.67;;;;;;;-0.99;67.50;100573.34;1727800;81;21004;-48
2020/12/12 08:48:55;;;;;;;12.53;7.17;;;;;;;-0.99;67.51;100576.53;1757630;81;21536;-48
2020/12/12 08:51:30;;;;;;;11.63;7.37;;;;;;;-1.01;67.72;100572.72;1757579;81;21487;-48
2020/12/12 08:53:58;;;;;;;8.43;5.28;;;;;;;-0.98;67.81;100576.34;1757532;81;21375;-50
2020/12/12 08:56:28;;;;;;;10.93;5.73;;;;;;;-0.92;67.68;100573.43;1757551;81;20952;-49
2020/12/12 08:59:04;;;;;;;15.63;7.47;;;;;;;-0.86;67.63;100574.05;1698159;83;20952;-49
2020/12/12 09:01:44;;;;;;;12.23;6.80;;;;;;;-0.82;67.57;100574.80;1724952;83;20981;-50
2020/12/12 09:04:20;;;;;;;13.50;6.93;;;;;;;-0.83;67.46;100561.64;1724881;83;21161;-51
2020/12/12 09:06:51;;;;;;;12.70;6.17;;;;;;;-0.86;67.46;100564.20;1725061;83;21377;-49
2020/12/12 09:09:29;;;;;;;12.07;6.00;;;;;;;-0.82;67.59;100564.12;1724287;82;21122;-50
2020/12/12 09:12:07;;;;;;;12.13;6.23;;;;;;;-0.81;67.63;100570.31;1718823;83;21220;-49
2020/12/12 09:14:38;;;;;;;11.80;6.63;;;;;;;-0.80;67.77;100565.29;1704995;83;21114;-48
2020/12/12 09:17:09;;;;;;;10.73;6.53;;;;;;;-0.79;67.91;100562.94;1706871;83;21515;-47
2020/12/12 09:19:38;;;;;;;14.90;6.37;;;;;;;-0.80;67.85;100568.79;1708471;83;20993;-46
2020/12/12 09:22:08;;;;;;;15.73;7.60;;;;;;;-0.81;67.97;100557.79;1706927;83;21068;-48
2020/12/12 09:24:36;;;;;;;18.53;7.77;;;;;;;-0.78;68.05;100560.58;1704837;82;21012;-50
2020/12/12 09:27:04;;;;;;;16.33;7.23;;;;;;;-0.74;68.08;100549.02;1707006;81;21119;-47
2020/12/12 09:29:31;;;;;;;14.37;7.17;;;;;;;-0.68;68.03;100546.94;1705008;83;21163;-47
2020/12/12 09:32:00;;;;;;;12.97;8.23;;;;;;;-0.64;67.88;100543.70;1707497;82;21373;-48
2020/12/12 09:34:28;;;;;;;14.43;7.50;;;;;;;-0.60;67.80;100531.63;1707887;83;21906;-49
2020/12/12 09:36:55;;;;;;;14.67;8.70;;;;;;;-0.49;67.68;100525.48;1705929;83;21563;-48
2020/12/12 09:39:23;;;;;;;14.97;8.03;;;;;;;-0.42;67.53;100522.36;1706610;83;21899;-47
2020/12/12 09:41:58;;;;;;;14.27;8.03;;;;;;;-0.36;67.17;100521.08;1705072;83;21078;-51
2020/12/12 09:44:28;;;;;;;16.40;8.53;;;;;;;-0.36;67.10;100506.38;1706700;83;21534;-47
2020/12/12 09:46:57;;;;;;;13.03;6.27;;;;;;;-0.33;67.08;100509.20;1705089;83;21190;-49
2020/12/12 09:49:26;;;;;;;13.00;7.10;;;;;;;-0.25;66.95;100513.09;1706018;83;21078;-48
2020/12/12 09:51:53;;;;;;;15.17;7.10;;;;;;;-0.24;66.80;100512.07;1705556;83;21092;-47
2020/12/12 09:54:22;;;;;;;14.80;8.10;;;;;;;-0.28;66.38;100508.11;1706000;83;21087;-50
2020/12/12 09:56:50;;;;;;;18.63;7.80;;;;;;;-0.31;66.45;100513.31;1706439;82;21551;-47
2020/12/12 09:59:19;;;;;;;16.37;9.17;;;;;;;-0.32;66.71;100504.16;1730412;82;21036;-48
2020/12/12 10:01:48;;;;;;;17.53;9.23;;;;;;;-0.30;66.57;100510.16;1705829;82;20978;-49
2020/12/12 10:04:16;;;;;;;15.60;8.40;;;;;;;-0.26;66.66;100511.41;1731307;82;21076;-49
2020/12/12 10:06:44;;;;;;;14.17;8.13;;;;;;;-0.20;66.77;100503.99;1727890;82;20965;-48
2020/12/12 10:09:12;;;;;;;16.57;8.77;;;;;;;-0.13;66.72;100488.83;1718739;83;21547;-48
2020/12/12 10:11:41;;;;;;;16.70;8.67;;;;;;;-0.06;66.58;100485.69;1718843;83;21065;-48
2020/12/12 10:14:11;;;;;;;16.13;8.83;;;;;;;0.03;66.44;100477.02;1718513;82;21045;-47
2020/12/12 10:16:39;;;;;;;20.27;8.43;;;;;;;0.05;65.99;100479.02;1733705;82;21010;-50
2020/12/12 10:19:07;;;;;;;17.43;8.40;;;;;;;0.02;65.92;100473.22;1735019;82;21619;-47
2020/12/12 10:21:36;;;;;;;16.13;8.20;;;;;;;-0.06;66.12;100474.98;1733185;82;21426;-49
2020/12/12 10:24:04;;;;;;;15.53;9.83;;;;;;;-0.13;66.07;100470.10;1734993;82;21405;-47
2020/12/12 10:26:32;;;;;;;16.83;8.90;;;;;;;-0.29;66.23;100473.87;1738875;82;21073;-49
2020/12/12 10:29:00;;;;;;;17.33;10.10;;;;;;;-0.41;66.53;100478.56;1693607;83;21176;-49
2020/12/12 10:31:28;;;;;;;17.43;10.50;;;;;;;-0.49;66.71;100470.17;1733612;82;21600;-48
2020/12/12 10:33:56;;;;;;;18.70;10.20;;;;;;;-0.46;66.94;100472.95;1737908;82;21493;-47
2020/12/12 10:36:25;;;;;;;19.70;10.40;;;;;;;-0.40;66.94;100471.70;1731540;82;20979;-47
2020/12/12 10:38:53;;;;;;;17.53;8.80;;;;;;;-0.31;66.83;100475.06;1724689;82;20958;-51
2020/12/12 10:41:21;;;;;;;22.07;10.20;;;;;;;-0.25;66.35;100475.66;1728328;82;20970;-48
2020/12/12 10:43:49;;;;;;;17.67;9.57;;;;;;;-0.20;66.26;100481.74;1737777;82;21222;-50
2020/12/12 10:46:17;;;;;;;17.93;9.57;;;;;;;-0.21;66.10;100474.23;1737976;82;21159;-48
2020/12/12 10:48:45;;;;;;;14.00;8.63;;;;;;;-0.21;66.15;100471.56;1737720;82;21983;-48
2020/12/12 10:51:17;;;;;;;15.67;8.47;;;;;;;-0.22;66.11;100473.92;1737755;82;21110;-48
2020/12/12 10:53:45;;;;;;;14.73;8.50;;;;;;;-0.26;66.19;100469.97;1711439;82;21157;-49
2020/12/12 10:56:13;;;;;;;14.20;8.97;;;;;;;-0.24;66.15;100464.45;1728314;82;21571;-49
2020/12/12 10:58:41;;;;;;;13.87;8.77;;;;;;;-0.22;66.14;100473.09;1740857;80;22056;-49
2020/12/12 11:01:09;;;;;;;14.53;8.80;;;;;;;-0.30;66.06;100470.06;1746214;81;21543;-48
2020/12/12 11:03:37;;;;;;;16.63;8.00;;;;;;;-0.38;66.16;100464.83;1747060;81;21157;-48
2020/12/12 11:06:05;;;;;;;14.53;8.27;;;;;;;-0.37;66.21;100467.81;1746292;82;21647;-50
2020/12/12 11:08:33;;;;;;;18.40;8.60;;;;;;;-0.34;66.10;100467.44;1747967;81;21476;-48
2020/12/12 11:11:01;;;;;;;17.07;9.33;;;;;;;-0.34;66.00;100468.27;1747607;81;21367;-49
2020/12/12 11:13:29;;;;;;;15.87;8.13;;;;;;;-0.31;66.09;100473.21;1746099;80;21572;-48
2020/12/12 11:15:57;;;;;;;15.93;8.10;;;;;;;-0.30;65.87;100474.07;1748878;81;21045;-49
2020/12/12 11:18:25;;;;;;;14.90;7.53;;;;;;;-0.35;66.23;100465.80;1743008;81;21013;-49
2020/12/12 11:20:53;;;;;;;17.23;8.63;;;;;;;-0.39;66.18;100476.55;1748861;81;21070;-48
2020/12/12 11:23:20;;;;;;;17.27;10.03;;;;;;;-0.47;66.18;100482.00;1745372;81;21642;-48
2020/12/12 11:25:48;;;;;;;18.20;8.67;;;;;;;-0.51;66.43;100478.87;1746540;81;21191;-48
2020/12/12 11:28:16;;;;;;;16.03;9.20;;;;;;;-0.48;66.26;100482.52;1749190;81;20971;-49